sensor_id;sensor_type;location;lat;lon;timestamp;pressure;altitude;pressure_sealevel;temperature;humidity
32033;BME280;31720;52.638;9.216;2023-05-21T00:00:03;101681.25;;;14.61;97.24
32033;BME280;31720;52.638;9.216;2023-05-21T00:03:09;101682.09;;;14.61;97.38
32033;BME280;31720;52.638;9.216;2023-05-21T00:06:12;101680.56;;;14.57;97.73
32033;BME280;31720;52.638;9.216;2023-05-21T00:09:15;101679.81;;;14.55;97.81
32033;BME280;31720;52.638;9.216;2023-05-21T00:12:17;101677.84;;;14.59;97.52
32033;BME280;31720;52.638;9.216;2023-05-21T00:15:18;101668.53;;;14.52;98.19
32033;BME280;31720;52.638;9.216;2023-05-21T00:18:20;101669.56;;;14.49;98.63
32033;BME280;31720;52.638;9.216;2023-05-21T00:21:21;101660.97;;;14.44;99.38
32033;BME280;31720;52.638;9.216;2023-05-21T00:24:26;101658.28;;;14.45;98.66
32033;BME280;31720;52.638;9.216;2023-05-21T00:27:27;101665.50;;;14.42;99.21
32033;BME280;31720;52.638;9.216;2023-05-21T00:30:29;101652.28;;;14.42;99.69
32033;BME280;31720;52.638;9.216;2023-05-21T00:33:30;101653.41;;;14.38;99.13
32033;BME280;31720;52.638;9.216;2023-05-21T00:36:32;101649.16;;;14.35;99.06
32033;BME280;31720;52.638;9.216;2023-05-21T00:39:35;101644.16;;;14.29;100.00
32033;BME280;31720;52.638;9.216;2023-05-21T00:42:36;101640.41;;;14.33;99.92
32033;BME280;31720;52.638;9.216;2023-05-21T00:45:39;101633.59;;;14.29;100.00
32033;BME280;31720;52.638;9.216;2023-05-21T00:48:44;101644.25;;;14.28;100.00
32033;BME280;31720;52.638;9.216;2023-05-21T00:51:45;101636.25;;;14.29;100.00
32033;BME280;31720;52.638;9.216;2023-05-21T00:54:49;101633.59;;;14.29;100.00
32033;BME280;31720;52.638;9.216;2023-05-21T00:57:51;101640.94;;;14.24;100.00
32033;BME280;31720;52.638;9.216;2023-05-21T01:00:52;101625.06;;;14.24;100.00
32033;BME280;31720;52.638;9.216;2023-05-21T01:03:55;101635.53;;;14.26;100.00
32033;BME280;31720;52.638;9.216;2023-05-21T01:06:57;101635.13;;;14.17;100.00
32033;BME280;31720;52.638;9.216;2023-05-21T01:10:00;101630.69;;;14.18;100.00
32033;BME280;31720;52.638;9.216;2023-05-21T01:13:02;101632.56;;;14.16;100.00
32033;BME280;31720;52.638;9.216;2023-05-21T01:16:04;101625.47;;;14.16;100.00
32033;BME280;31720;52.638;9.216;2023-05-21T01:19:09;101629.91;;;14.16;100.00
32033;BME280;31720;52.638;9.216;2023-05-21T01:22:14;101628.38;;;14.12;100.00
32033;BME280;31720;52.638;9.216;2023-05-21T01:25:19;101633.50;;;14.15;100.00
32033;BME280;31720;52.638;9.216;2023-05-21T01:28:20;101618.38;;;14.17;100.00
32033;BME280;31720;52.638;9.216;2023-05-21T01:31:26;101615.75;;;14.17;100.00
32033;BME280;31720;52.638;9.216;2023-05-21T01:34:32;101618.81;;;14.09;100.00
32033;BME280;31720;52.638;9.216;2023-05-21T01:37:37;101627.00;;;14.05;100.00
32033;BME280;31720;52.638;9.216;2023-05-21T01:40:46;101624.28;;;14.06;100.00
32033;BME280;31720;52.638;9.216;2023-05-21T01:43:52;101608.41;;;14.06;100.00
32033;BME280;31720;52.638;9.216;2023-05-21T01:46:57;101618.63;;;13.96;100.00
32033;BME280;31720;52.638;9.216;2023-05-21T01:49:59;101620.09;;;14.02;100.00
32033;BME280;31720;52.638;9.216;2023-05-21T01:53:01;101606.25;;;13.97;100.00
32033;BME280;31720;52.638;9.216;2023-05-21T01:56:06;101612.75;;;13.91;100.00
32033;BME280;31720;52.638;9.216;2023-05-21T01:59:08;101612.97;;;13.87;100.00
32033;BME280;31720;52.638;9.216;2023-05-21T02:02:09;101608.88;;;13.81;100.00
32033;BME280;31720;52.638;9.216;2023-05-21T02:05:10;101612.63;;;13.77;100.00
32033;BME280;31720;52.638;9.216;2023-05-21T02:08:12;101612.63;;;13.77;100.00
32033;BME280;31720;52.638;9.216;2023-05-21T02:11:15;101608.34;;;13.75;100.00
32033;BME280;31720;52.638;9.216;2023-05-21T02:14:17;101605.94;;;13.70;100.00
32033;BME280;31720;52.638;9.216;2023-05-21T02:17:19;101613.97;;;13.68;100.00
32033;BME280;31720;52.638;9.216;2023-05-21T02:20:21;101606.09;;;13.67;100.00
32033;BME280;31720;52.638;9.216;2023-05-21T02:23:23;101601.00;;;13.64;100.00
32033;BME280;31720;52.638;9.216;2023-05-21T02:26:25;101605.34;;;13.65;100.00
32033;BME280;31720;52.638;9.216;2023-05-21T02:29:28;101601.84;;;13.64;100.00
32033;BME280;31720;52.638;9.216;2023-05-21T02:32:29;101605.47;;;13.62;100.00
32033;BME280;31720;52.638;9.216;2023-05-21T02:35:32;101601.22;;;13.59;100.00
32033;BME280;31720;52.638;9.216;2023-05-21T02:38:33;101595.09;;;13.59;100.00
32033;BME280;31720;52.638;9.216;2023-05-21T02:41:36;101597.03;;;13.55;100.00
32033;BME280;31720;52.638;9.216;2023-05-21T02:44:37;101594.31;;;13.57;100.00
32033;BME280;31720;52.638;9.216;2023-05-21T02:47:39;101599.53;;;13.58;100.00
32033;BME280;31720;52.638;9.216;2023-05-21T02:50:40;101598.84;;;13.55;100.00
32033;BME280;31720;52.638;9.216;2023-05-21T02:53:42;101591.75;;;13.55;100.00
32033;BME280;31720;52.638;9.216;2023-05-21T02:56:44;101588.31;;;13.53;100.00
32033;BME280;31720;52.638;9.216;2023-05-21T02:59:46;101578.66;;;13.54;100.00
32033;BME280;31720;52.638;9.216;2023-05-21T03:02:47;101576.31;;;13.48;100.00
32033;BME280;31720;52.638;9.216;2023-05-21T03:05:48;101579.41;;;13.38;100.00
32033;BME280;31720;52.638;9.216;2023-05-21T03:08:50;101580.28;;;13.39;100.00
32033;BME280;31720;52.638;9.216;2023-05-21T03:11:52;101576.16;;;13.33;100.00
32033;BME280;31720;52.638;9.216;2023-05-21T03:14:54;101570.97;;;13.32;100.00
32033;BME280;31720;52.638;9.216;2023-05-21T03:17:55;101577.72;;;13.37;100.00
32033;BME280;31720;52.638;9.216;2023-05-21T03:20:56;101579.66;;;13.34;100.00
32033;BME280;31720;52.638;9.216;2023-05-21T03:23:58;101577.34;;;13.28;100.00
32033;BME280;31720;52.638;9.216;2023-05-21T03:27:02;101578.28;;;13.27;100.00
32033;BME280;31720;52.638;9.216;2023-05-21T03:30:06;101582.88;;;13.23;100.00
32033;BME280;31720;52.638;9.216;2023-05-21T03:33:08;101574.75;;;13.26;100.00
32033;BME280;31720;52.638;9.216;2023-05-21T03:36:10;101578.09;;;13.30;100.00
32033;BME280;31720;52.638;9.216;2023-05-21T03:39:11;101576.75;;;13.21;100.00
32033;BME280;31720;52.638;9.216;2023-05-21T03:42:14;101584.75;;;13.19;100.00
32033;BME280;31720;52.638;9.216;2023-05-21T03:45:15;101580.56;;;13.15;100.00
32033;BME280;31720;52.638;9.216;2023-05-21T03:48:17;101576.63;;;13.24;100.00
32033;BME280;31720;52.638;9.216;2023-05-21T03:51:18;101575.19;;;13.17;100.00
32033;BME280;31720;52.638;9.216;2023-05-21T03:54:20;101580.56;;;13.15;100.00
32033;BME280;31720;52.638;9.216;2023-05-21T03:57:22;101574.34;;;13.16;100.00
32033;BME280;31720;52.638;9.216;2023-05-21T04:00:24;101577.94;;;13.15;100.00
32033;BME280;31720;52.638;9.216;2023-05-21T04:03:25;101578.97;;;13.13;100.00
32033;BME280;31720;52.638;9.216;2023-05-21T04:06:26;101577.09;;;13.15;100.00
32033;BME280;31720;52.638;9.216;2023-05-21T04:09:29;101573.69;;;13.13;100.00
32033;BME280;31720;52.638;9.216;2023-05-21T04:12:32;101570.00;;;13.15;100.00
32033;BME280;31720;52.638;9.216;2023-05-21T04:15:33;101577.69;;;13.20;100.00
32033;BME280;31720;52.638;9.216;2023-05-21T04:18:35;101573.44;;;13.17;100.00
32033;BME280;31720;52.638;9.216;2023-05-21T04:21:36;101565.66;;;13.14;100.00
32033;BME280;31720;52.638;9.216;2023-05-21T04:24:37;101577.09;;;13.15;100.00
32033;BME280;31720;52.638;9.216;2023-05-21T04:27:40;101584.91;;;13.16;100.00
32033;BME280;31720;52.638;9.216;2023-05-21T04:30:42;101589.28;;;13.17;100.00
32033;BME280;31720;52.638;9.216;2023-05-21T04:33:45;101582.50;;;13.12;100.00
32033;BME280;31720;52.638;9.216;2023-05-21T04:36:47;101586.69;;;13.16;100.00
32033;BME280;31720;52.638;9.216;2023-05-21T04:39:49;101583.22;;;13.15;100.00
32033;BME280;31720;52.638;9.216;2023-05-21T04:42:51;101578.97;;;13.13;100.00
32033;BME280;31720;52.638;9.216;2023-05-21T04:45:53;101583.66;;;13.06;100.00
32033;BME280;31720;52.638;9.216;2023-05-21T04:48:54;101583.53;;;13.09;100.00
32033;BME280;31720;52.638;9.216;2023-05-21T04:51:55;101591.50;;;13.08;100.00
32033;BME280;31720;52.638;9.216;2023-05-21T04:54:58;101590.81;;;13.04;100.00
32033;BME280;31720;52.638;9.216;2023-05-21T04:58:01;101587.25;;;13.05;100.00
32033;BME280;31720;52.638;9.216;2023-05-21T05:01:03;101588.25;;;13.03;100.00
32033;BME280;31720;52.638;9.216;2023-05-21T05:04:04;101579.47;;;13.02;100.00
32033;BME280;31720;52.638;9.216;2023-05-21T05:07:05;101575.63;;;13.09;100.00
32033;BME280;31720;52.638;9.216;2023-05-21T05:10:08;101575.63;;;13.09;100.00
32033;BME280;31720;52.638;9.216;2023-05-21T05:13:10;101579.56;;;13.18;100.00
32033;BME280;31720;52.638;9.216;2023-05-21T05:16:12;101582.03;;;13.21;100.00
32033;BME280;31720;52.638;9.216;2023-05-21T05:19:16;101576.94;;;13.18;100.00
32033;BME280;31720;52.638;9.216;2023-05-21T05:22:18;101573.44;;;13.17;100.00
32033;BME280;31720;52.638;9.216;2023-05-21T05:25:19;101577.41;;;13.26;100.00
32033;BME280;31720;52.638;9.216;2023-05-21T05:28:22;101572.91;;;13.28;100.00
32033;BME280;31720;52.638;9.216;2023-05-21T05:31:23;101571.69;;;13.35;100.00
32033;BME280;31720;52.638;9.216;2023-05-21T05:34:25;101569.03;;;13.35;100.00
32033;BME280;31720;52.638;9.216;2023-05-21T05:37:26;101581.13;;;13.39;100.00
32033;BME280;31720;52.638;9.216;2023-05-21T05:40:28;101579.88;;;13.47;100.00
32033;BME280;31720;52.638;9.216;2023-05-21T05:43:30;101579.03;;;13.46;100.00
32033;BME280;31720;52.638;9.216;2023-05-21T05:46:32;101573.50;;;13.51;100.00
32033;BME280;31720;52.638;9.216;2023-05-21T05:49:33;101580.50;;;13.52;100.00
32033;BME280;31720;52.638;9.216;2023-05-21T05:52:35;101578.56;;;13.55;100.00
32033;BME280;31720;52.638;9.216;2023-05-21T05:55:36;101578.22;;;13.61;100.00
32033;BME280;31720;52.638;9.216;2023-05-21T05:58:39;101564.84;;;13.64;100.00
32033;BME280;31720;52.638;9.216;2023-05-21T06:01:40;101563.31;;;13.60;100.00
32033;BME280;31720;52.638;9.216;2023-05-21T06:04:42;101564.53;;;13.70;100.00
32033;BME280;31720;52.638;9.216;2023-05-21T06:07:43;101562.44;;;13.77;100.00
32033;BME280;31720;52.638;9.216;2023-05-21T06:10:45;101562.88;;;13.85;100.00
32033;BME280;31720;52.638;9.216;2023-05-21T06:13:48;101563.38;;;13.92;100.00
32033;BME280;31720;52.638;9.216;2023-05-21T06:16:49;101560.59;;;13.95;100.00
32033;BME280;31720;52.638;9.216;2023-05-21T06:19:50;101564.41;;;14.05;100.00
32033;BME280;31720;52.638;9.216;2023-05-21T06:22:52;101559.38;;;14.16;100.00
32033;BME280;31720;52.638;9.216;2023-05-21T06:25:53;101547.63;;;14.22;100.00
32033;BME280;31720;52.638;9.216;2023-05-21T06:28:56;101554.47;;;14.26;100.00
32033;BME280;31720;52.638;9.216;2023-05-21T06:31:57;101550.63;;;14.32;100.00
32033;BME280;31720;52.638;9.216;2023-05-21T06:34:59;101554.69;;;14.37;100.00
32033;BME280;31720;52.638;9.216;2023-05-21T06:38:00;101564.53;;;14.51;100.00
32033;BME280;31720;52.638;9.216;2023-05-21T06:41:01;101555.22;;;14.60;100.00
32033;BME280;31720;52.638;9.216;2023-05-21T06:44:05;101549.66;;;14.64;100.00
32033;BME280;31720;52.638;9.216;2023-05-21T06:47:06;101550.09;;;14.73;100.00
32033;BME280;31720;52.638;9.216;2023-05-21T06:50:08;101542.81;;;14.76;100.00
32033;BME280;31720;52.638;9.216;2023-05-21T06:53:09;101543.22;;;14.84;100.00
32033;BME280;31720;52.638;9.216;2023-05-21T06:56:12;101541.91;;;14.91;100.00
32033;BME280;31720;52.638;9.216;2023-05-21T06:59:15;101548.75;;;14.95;100.00
32033;BME280;31720;52.638;9.216;2023-05-21T07:02:17;101541.75;;;14.94;100.00
32033;BME280;31720;52.638;9.216;2023-05-21T07:05:18;101539.75;;;14.98;100.00
32033;BME280;31720;52.638;9.216;2023-05-21T07:08:19;101539.69;;;15.00;100.00
32033;BME280;31720;52.638;9.216;2023-05-21T07:11:21;101546.50;;;15.04;100.00
32033;BME280;31720;52.638;9.216;2023-05-21T07:14:25;101545.44;;;15.06;100.00
32033;BME280;31720;52.638;9.216;2023-05-21T07:17:27;101541.56;;;15.12;100.00
32033;BME280;31720;52.638;9.216;2023-05-21T07:20:28;101538.75;;;15.15;100.00
32033;BME280;31720;52.638;9.216;2023-05-21T07:23:29;101530.53;;;15.19;100.00
32033;BME280;31720;52.638;9.216;2023-05-21T07:26:31;101531.22;;;15.23;100.00
32033;BME280;31720;52.638;9.216;2023-05-21T07:29:34;101535.38;;;15.27;100.00
32033;BME280;31720;52.638;9.216;2023-05-21T07:32:35;101541.16;;;15.34;100.00
32033;BME280;31720;52.638;9.216;2023-05-21T07:35:36;101541.91;;;15.36;100.00
32033;BME280;31720;52.638;9.216;2023-05-21T07:38:38;101533.19;;;15.34;100.00
32033;BME280;31720;52.638;9.216;2023-05-21T07:41:39;101533.03;;;15.37;100.00
32033;BME280;31720;52.638;9.216;2023-05-21T07:44:42;101533.31;;;15.46;100.00
32033;BME280;31720;52.638;9.216;2023-05-21T07:47:43;101532.19;;;15.51;100.00
32033;BME280;31720;52.638;9.216;2023-05-21T07:50:45;101538.16;;;15.54;100.00
32033;BME280;31720;52.638;9.216;2023-05-21T07:53:48;101536.06;;;15.59;100.00
32033;BME280;31720;52.638;9.216;2023-05-21T07:56:50;101536.66;;;15.64;100.00
32033;BME280;31720;52.638;9.216;2023-05-21T07:59:52;101533.53;;;15.72;100.00
32033;BME280;31720;52.638;9.216;2023-05-21T08:02:54;101531.44;;;15.77;100.00
32033;BME280;31720;52.638;9.216;2023-05-21T08:05:55;101532.97;;;15.81;100.00
32033;BME280;31720;52.638;9.216;2023-05-21T08:08:57;101535.41;;;15.84;100.00
32033;BME280;31720;52.638;9.216;2023-05-21T08:11:59;101528.13;;;15.88;100.00
32033;BME280;31720;52.638;9.216;2023-05-21T08:15:01;101521.78;;;15.90;100.00
32033;BME280;31720;52.638;9.216;2023-05-21T08:18:03;101525.72;;;15.97;100.00
32033;BME280;31720;52.638;9.216;2023-05-21T08:21:05;101521.09;;;16.01;100.00
32033;BME280;31720;52.638;9.216;2023-05-21T08:24:06;101522.59;;;16.05;100.00
32033;BME280;31720;52.638;9.216;2023-05-21T08:27:07;101524.84;;;16.11;100.00
32033;BME280;31720;52.638;9.216;2023-05-21T08:30:11;101523.63;;;16.17;100.00
32033;BME280;31720;52.638;9.216;2023-05-21T08:33:12;101522.25;;;16.24;100.00
32033;BME280;31720;52.638;9.216;2023-05-21T08:36:14;101527.28;;;16.29;100.00
32033;BME280;31720;52.638;9.216;2023-05-21T08:39:15;101523.47;;;16.33;100.00
32033;BME280;31720;52.638;9.216;2023-05-21T08:42:24;101527.31;;;16.41;100.00
32033;BME280;31720;52.638;9.216;2023-05-21T08:45:33;101526.19;;;16.45;100.00
32033;BME280;31720;52.638;9.216;2023-05-21T08:48:36;101524.97;;;16.64;100.00
32033;BME280;31720;52.638;9.216;2023-05-21T08:51:38;101517.38;;;16.58;100.00
32033;BME280;31720;52.638;9.216;2023-05-21T08:54:41;101522.19;;;16.65;100.00
32033;BME280;31720;52.638;9.216;2023-05-21T08:57:44;101517.06;;;16.77;100.00
32033;BME280;31720;52.638;9.216;2023-05-21T09:00:47;101524.41;;;16.86;100.00
32033;BME280;31720;52.638;9.216;2023-05-21T09:03:49;101524.09;;;16.90;100.00
32033;BME280;31720;52.638;9.216;2023-05-21T09:06:53;101518.81;;;16.90;100.00
32033;BME280;31720;52.638;9.216;2023-05-21T09:09:59;101511.69;;;16.91;100.00
32033;BME280;31720;52.638;9.216;2023-05-21T09:13:03;101512.41;;;16.93;100.00
32033;BME280;31720;52.638;9.216;2023-05-21T09:16:06;101518.50;;;16.95;100.00
32033;BME280;31720;52.638;9.216;2023-05-21T09:19:09;101517.75;;;17.06;100.00
32033;BME280;31720;52.638;9.216;2023-05-21T09:22:11;101523.19;;;17.17;100.00
32033;BME280;31720;52.638;9.216;2023-05-21T09:25:14;101528.06;;;17.23;100.00
32033;BME280;31720;52.638;9.216;2023-05-21T09:28:17;101517.97;;;17.28;100.00
32033;BME280;31720;52.638;9.216;2023-05-21T09:31:21;101523.28;;;17.41;100.00
32033;BME280;31720;52.638;9.216;2023-05-21T09:34:23;101518.91;;;17.53;100.00
32033;BME280;31720;52.638;9.216;2023-05-21T09:37:25;101521.88;;;17.61;100.00
32033;BME280;31720;52.638;9.216;2023-05-21T09:40:27;101510.72;;;17.68;100.00
32033;BME280;31720;52.638;9.216;2023-05-21T09:43:29;101522.84;;;17.72;100.00
32033;BME280;31720;52.638;9.216;2023-05-21T09:46:38;101513.94;;;17.73;100.00
32033;BME280;31720;52.638;9.216;2023-05-21T09:49:42;101519.75;;;17.79;100.00
32033;BME280;31720;52.638;9.216;2023-05-21T09:52:44;101520.53;;;17.81;100.00
32033;BME280;31720;52.638;9.216;2023-05-21T09:55:45;101516.63;;;17.97;100.00
32033;BME280;31720;52.638;9.216;2023-05-21T09:58:50;101515.34;;;18.03;100.00
32033;BME280;31720;52.638;9.216;2023-05-21T10:01:54;101521.19;;;18.08;100.00
32033;BME280;31720;52.638;9.216;2023-05-21T10:04:56;101509.47;;;18.11;100.00
32033;BME280;31720;52.638;9.216;2023-05-21T10:07:59;101516.38;;;18.13;100.00
32033;BME280;31720;52.638;9.216;2023-05-21T10:11:02;101505.78;;;18.24;100.00
32033;BME280;31720;52.638;9.216;2023-05-21T10:14:05;101509.13;;;18.39;100.00
32033;BME280;31720;52.638;9.216;2023-05-21T10:17:10;101503.13;;;18.48;100.00
32033;BME280;31720;52.638;9.216;2023-05-21T10:20:12;101501.50;;;18.59;100.00
32033;BME280;31720;52.638;9.216;2023-05-21T10:23:13;101501.03;;;18.65;100.00
32033;BME280;31720;52.638;9.216;2023-05-21T10:26:15;101496.50;;;18.78;98.19
32033;BME280;31720;52.638;9.216;2023-05-21T10:29:18;101493.75;;;18.91;96.59
32033;BME280;31720;52.638;9.216;2023-05-21T10:32:21;101488.53;;;18.89;96.22
32033;BME280;31720;52.638;9.216;2023-05-21T10:35:23;101490.00;;;18.93;100.00
32033;BME280;31720;52.638;9.216;2023-05-21T10:38:25;101489.19;;;19.04;97.24
32033;BME280;31720;52.638;9.216;2023-05-21T10:41:34;101482.31;;;19.13;100.00
32033;BME280;31720;52.638;9.216;2023-05-21T10:44:48;101488.84;;;19.42;99.56
32033;BME280;31720;52.638;9.216;2023-05-21T10:48:05;101482.44;;;19.45;96.92
32033;BME280;31720;52.638;9.216;2023-05-21T10:51:17;101475.03;;;19.71;95.58
32033;BME280;31720;52.638;9.216;2023-05-21T11:01:38;101468.06;;;20.02;95.40
32033;BME280;31720;52.638;9.216;2023-05-21T11:04:43;101455.41;;;20.26;90.31
32033;BME280;31720;52.638;9.216;2023-05-21T11:07:51;101452.13;;;20.23;91.18
32033;BME280;31720;52.638;9.216;2023-05-21T11:10:57;101453.56;;;20.27;91.01
32033;BME280;31720;52.638;9.216;2023-05-21T11:13:58;101445.44;;;20.28;90.31
32033;BME280;31720;52.638;9.216;2023-05-21T11:17:02;101438.56;;;20.47;89.58
32033;BME280;31720;52.638;9.216;2023-05-21T11:20:06;101443.66;;;20.71;88.33
32033;BME280;31720;52.638;9.216;2023-05-21T11:23:10;101439.75;;;20.75;89.68
32033;BME280;31720;52.638;9.216;2023-05-21T11:26:11;101431.75;;;20.96;86.18
32033;BME280;31720;52.638;9.216;2023-05-21T11:29:13;101435.94;;;21.19;87.45
32033;BME280;31720;52.638;9.216;2023-05-21T11:32:15;101427.31;;;21.37;85.49
32033;BME280;31720;52.638;9.216;2023-05-21T11:35:21;101424.22;;;21.41;83.80
32033;BME280;31720;52.638;9.216;2023-05-21T11:38:22;101418.91;;;21.51;83.59
32033;BME280;31720;52.638;9.216;2023-05-21T11:41:23;101406.00;;;21.75;81.41
32033;BME280;31720;52.638;9.216;2023-05-21T11:44:36;101401.69;;;21.94;81.37
32033;BME280;31720;52.638;9.216;2023-05-21T11:47:39;101402.81;;;21.91;80.85
32033;BME280;31720;52.638;9.216;2023-05-21T11:50:41;101408.72;;;21.95;81.43
32033;BME280;31720;52.638;9.216;2023-05-21T11:53:43;101408.16;;;22.11;79.41
32033;BME280;31720;52.638;9.216;2023-05-21T11:56:44;101407.78;;;22.15;79.92
32033;BME280;31720;52.638;9.216;2023-05-21T11:59:48;101407.19;;;22.12;79.55
32033;BME280;31720;52.638;9.216;2023-05-21T12:02:51;101409.72;;;22.42;77.29
32033;BME280;31720;52.638;9.216;2023-05-21T12:06:03;101403.78;;;22.68;79.10
32033;BME280;31720;52.638;9.216;2023-05-21T12:09:05;101400.88;;;22.89;75.69
32033;BME280;31720;52.638;9.216;2023-05-21T12:12:07;101398.38;;;23.24;75.63
32033;BME280;31720;52.638;9.216;2023-05-21T12:15:09;101383.56;;;23.48;74.40
32033;BME280;31720;52.638;9.216;2023-05-21T12:18:14;101386.56;;;23.72;72.95
32033;BME280;31720;52.638;9.216;2023-05-21T12:21:17;101385.66;;;23.82;72.33
32033;BME280;31720;52.638;9.216;2023-05-21T12:24:18;101376.75;;;23.81;71.21
32033;BME280;31720;52.638;9.216;2023-05-21T12:27:20;101385.66;;;23.99;72.07
32033;BME280;31720;52.638;9.216;2023-05-21T12:30:22;101374.31;;;24.05;68.78
32033;BME280;31720;52.638;9.216;2023-05-21T12:33:24;101368.25;;;24.21;66.25
32033;BME280;31720;52.638;9.216;2023-05-21T12:36:30;101372.50;;;24.32;67.88
32033;BME280;31720;52.638;9.216;2023-05-21T12:39:36;101370.38;;;24.62;64.33
32033;BME280;31720;52.638;9.216;2023-05-21T12:42:38;101369.47;;;24.71;62.72
32033;BME280;31720;52.638;9.216;2023-05-21T12:45:40;101358.72;;;24.71;65.64
32033;BME280;31720;52.638;9.216;2023-05-21T12:48:47;101366.25;;;24.67;63.32
32033;BME280;31720;52.638;9.216;2023-05-21T12:51:49;101364.75;;;24.73;63.64
32033;BME280;31720;52.638;9.216;2023-05-21T12:54:52;101364.34;;;24.86;60.76
32033;BME280;31720;52.638;9.216;2023-05-21T12:58:01;101355.84;;;24.72;63.06
32033;BME280;31720;52.638;9.216;2023-05-21T13:01:05;101353.16;;;24.46;63.32
32033;BME280;31720;52.638;9.216;2023-05-21T13:04:06;101348.88;;;24.36;62.08
32033;BME280;31720;52.638;9.216;2023-05-21T13:07:09;101341.41;;;24.47;65.85
32033;BME280;31720;52.638;9.216;2023-05-21T13:10:11;101347.38;;;24.59;65.30
32033;BME280;31720;52.638;9.216;2023-05-21T13:13:12;101347.78;;;24.72;62.64
32033;BME280;31720;52.638;9.216;2023-05-21T13:16:13;101341.47;;;24.82;61.39
32033;BME280;31720;52.638;9.216;2023-05-21T13:19:15;101340.06;;;25.03;63.24
32033;BME280;31720;52.638;9.216;2023-05-21T13:22:18;101342.38;;;25.33;63.31
32033;BME280;31720;52.638;9.216;2023-05-21T13:25:21;101341.81;;;25.79;58.06
32033;BME280;31720;52.638;9.216;2023-05-21T13:28:23;101340.81;;;26.13;53.36
32033;BME280;31720;52.638;9.216;2023-05-21T13:31:24;101335.41;;;26.29;53.34
32033;BME280;31720;52.638;9.216;2023-05-21T13:34:26;101330.69;;;26.40;54.63
32033;BME280;31720;52.638;9.216;2023-05-21T13:37:28;101326.66;;;26.36;55.75
32033;BME280;31720;52.638;9.216;2023-05-21T13:40:30;101322.75;;;26.38;53.01
32033;BME280;31720;52.638;9.216;2023-05-21T13:43:31;101318.41;;;26.53;52.64
32033;BME280;31720;52.638;9.216;2023-05-21T13:46:32;101322.44;;;26.49;52.16
32033;BME280;31720;52.638;9.216;2023-05-21T13:49:38;101318.88;;;26.57;50.69
32033;BME280;31720;52.638;9.216;2023-05-21T13:52:41;101315.34;;;26.56;51.60
32033;BME280;31720;52.638;9.216;2023-05-21T13:55:42;101322.91;;;26.61;49.92
32033;BME280;31720;52.638;9.216;2023-05-21T13:58:44;101314.97;;;26.76;48.57
32033;BME280;31720;52.638;9.216;2023-05-21T14:01:46;101319.03;;;26.72;48.88
32033;BME280;31720;52.638;9.216;2023-05-21T14:04:49;101317.66;;;26.76;47.03
32033;BME280;31720;52.638;9.216;2023-05-21T14:07:51;101312.94;;;26.78;51.72
32033;BME280;31720;52.638;9.216;2023-05-21T14:10:52;101316.13;;;26.81;49.30
32033;BME280;31720;52.638;9.216;2023-05-21T14:13:54;101324.50;;;26.95;47.92
32033;BME280;31720;52.638;9.216;2023-05-21T14:16:56;101308.00;;;26.90;48.62
32033;BME280;31720;52.638;9.216;2023-05-21T14:19:57;101311.59;;;26.66;49.50
32033;BME280;31720;52.638;9.216;2023-05-21T14:23:00;101315.72;;;26.53;50.52
32033;BME280;31720;52.638;9.216;2023-05-21T14:26:01;101316.84;;;26.67;51.91
32033;BME280;31720;52.638;9.216;2023-05-21T14:29:02;101312.56;;;26.89;49.65
32033;BME280;31720;52.638;9.216;2023-05-21T14:32:05;101308.28;;;27.03;49.20
32033;BME280;31720;52.638;9.216;2023-05-21T14:35:06;101304.91;;;27.01;49.34
32033;BME280;31720;52.638;9.216;2023-05-21T14:38:09;101311.34;;;26.92;51.11
32033;BME280;31720;52.638;9.216;2023-05-21T14:41:11;101315.91;;;26.91;50.76
32033;BME280;31720;52.638;9.216;2023-05-21T14:44:12;101320.78;;;26.96;50.59
32033;BME280;31720;52.638;9.216;2023-05-21T14:47:13;101318.09;;;26.96;49.58
32033;BME280;31720;52.638;9.216;2023-05-21T14:50:15;101315.56;;;26.94;48.75
32033;BME280;31720;52.638;9.216;2023-05-21T14:53:18;101322.00;;;26.85;52.30
32033;BME280;31720;52.638;9.216;2023-05-21T14:56:20;101314.22;;;26.98;51.38
32033;BME280;31720;52.638;9.216;2023-05-21T14:59:24;101314.00;;;27.08;51.35
32033;BME280;31720;52.638;9.216;2023-05-21T15:02:25;101309.44;;;27.17;49.53
32033;BME280;31720;52.638;9.216;2023-05-21T15:05:27;101306.19;;;27.21;50.27
32033;BME280;31720;52.638;9.216;2023-05-21T15:08:30;101311.97;;;27.02;51.88
32033;BME280;31720;52.638;9.216;2023-05-21T15:11:31;101298.09;;;26.74;53.52
32033;BME280;31720;52.638;9.216;2023-05-21T15:14:33;101298.13;;;26.66;53.59
32033;BME280;31720;52.638;9.216;2023-05-21T15:17:34;101296.50;;;26.48;53.08
32033;BME280;31720;52.638;9.216;2023-05-21T15:20:36;101302.06;;;26.47;52.70
32033;BME280;31720;52.638;9.216;2023-05-21T15:23:38;101293.13;;;26.38;52.52
32033;BME280;31720;52.638;9.216;2023-05-21T15:26:40;101278.53;;;26.16;55.44
32033;BME280;31720;52.638;9.216;2023-05-21T15:29:41;101286.63;;;26.16;54.16
32033;BME280;31720;52.638;9.216;2023-05-21T15:32:44;101289.44;;;26.23;54.32
32033;BME280;31720;52.638;9.216;2023-05-21T15:35:46;101284.06;;;26.23;53.35
32033;BME280;31720;52.638;9.216;2023-05-21T15:38:48;101280.16;;;26.34;54.93
32033;BME280;31720;52.638;9.216;2023-05-21T15:41:50;101276.50;;;26.18;53.21
32033;BME280;31720;52.638;9.216;2023-05-21T15:44:52;101277.66;;;26.16;56.25
32033;BME280;31720;52.638;9.216;2023-05-21T15:47:54;101278.16;;;26.11;54.78
32033;BME280;31720;52.638;9.216;2023-05-21T15:50:55;101279.03;;;26.12;53.75